createdAt,value
2024-03-16T00:02:20.199Z,99.71
2024-03-16T00:07:21.879Z,99.78
2024-03-16T00:12:23.169Z,99.80
2024-03-16T00:17:24.489Z,99.88
2024-03-16T00:22:25.733Z,99.90
2024-03-16T00:27:27.071Z,99.66
2024-03-16T00:32:28.293Z,99.57
2024-03-16T00:37:29.532Z,99.72
2024-03-16T00:42:31.381Z,99.80
2024-03-16T00:47:32.608Z,99.67
2024-03-16T00:52:33.837Z,99.10
2024-03-16T00:57:35.140Z,99.08
2024-03-16T01:02:36.354Z,99.22
2024-03-16T01:07:37.591Z,99.53
2024-03-16T01:12:38.935Z,99.31
2024-03-16T01:17:40.228Z,98.72
2024-03-16T01:22:41.487Z,98.12
2024-03-16T01:27:42.785Z,98.77
2024-03-16T01:32:44.420Z,98.99
2024-03-16T01:37:45.676Z,98.74
2024-03-16T01:42:47.061Z,98.56
2024-03-16T01:47:48.671Z,98.74
2024-03-16T01:52:49.960Z,99.06
2024-03-16T01:57:51.604Z,99.13
2024-03-16T02:02:53.478Z,99.12
2024-03-16T02:07:55.107Z,98.95
2024-03-16T02:12:56.359Z,99.13
2024-03-16T02:17:57.587Z,99.16
2024-03-16T02:22:58.831Z,98.70
2024-03-16T02:28:00.120Z,98.52
2024-03-16T02:33:01.625Z,98.19
2024-03-16T02:38:02.939Z,98.45
2024-03-16T02:43:04.323Z,98.43
2024-03-16T02:48:06.290Z,98.22
2024-03-16T02:53:07.578Z,98.35
2024-03-16T02:58:08.879Z,98.71
2024-03-16T03:03:13.031Z,99.06
2024-03-16T03:08:14.251Z,99.25
2024-03-16T03:13:15.635Z,99.23
2024-03-16T03:18:16.893Z,99.28
2024-03-16T03:23:18.227Z,98.82
2024-03-16T03:28:19.456Z,99.20
2024-03-16T03:33:20.690Z,99.05
2024-03-16T03:38:22.103Z,98.93
2024-03-16T03:43:24.063Z,99.09
2024-03-16T03:48:25.363Z,99.12
2024-03-16T03:53:26.772Z,99.05
2024-03-16T03:58:28.194Z,98.86
2024-03-16T04:03:29.434Z,98.85
2024-03-16T04:08:30.666Z,98.62
2024-03-16T04:13:32.287Z,98.71
2024-03-16T04:18:34.019Z,98.73
2024-03-16T04:23:35.280Z,98.68
2024-03-16T04:28:36.929Z,98.63
2024-03-16T04:33:38.198Z,98.75
2024-03-16T04:38:39.500Z,98.72
2024-03-16T04:43:42.279Z,98.79
2024-03-16T04:48:43.639Z,98.74
2024-03-16T04:53:44.901Z,98.84
2024-03-16T04:58:46.371Z,98.92
2024-03-16T05:03:47.642Z,98.80
2024-03-16T05:08:48.965Z,98.96
2024-03-16T05:13:50.170Z,99.10
2024-03-16T05:18:51.428Z,99.34
2024-03-16T05:23:52.718Z,99.71
2024-03-16T05:28:53.934Z,99.92
2024-03-16T05:33:55.216Z,99.99
2024-03-16T05:38:56.566Z,99.99
2024-03-16T05:43:57.814Z,99.99
2024-03-16T05:48:59.195Z,99.99
2024-03-16T05:54:00.853Z,99.99
2024-03-16T05:59:02.131Z,99.99
2024-03-16T06:04:03.369Z,99.99
2024-03-16T06:09:07.730Z,99.99
2024-03-16T06:14:10.813Z,99.99
2024-03-16T06:19:13.639Z,99.99
2024-03-16T06:24:14.982Z,99.99
2024-03-16T06:29:18.085Z,99.99
2024-03-16T06:34:20.406Z,99.99
2024-03-16T06:39:22.635Z,97.34
2024-03-16T06:44:23.881Z,96.17
2024-03-16T06:49:25.526Z,93.66
2024-03-16T06:54:26.771Z,95.56
2024-03-16T06:59:27.975Z,95.88
2024-03-16T07:04:29.943Z,95.15
2024-03-16T07:09:31.189Z,95.68
2024-03-16T07:14:33.094Z,96.02
2024-03-16T07:19:34.322Z,95.08
2024-03-16T07:24:35.811Z,95.37
2024-03-16T07:29:37.502Z,95.50
2024-03-16T07:34:38.722Z,96.12
2024-03-16T07:39:39.951Z,95.05
2024-03-16T07:44:41.709Z,95.23
2024-03-16T07:49:43.081Z,93.71
2024-03-16T07:54:44.477Z,93.60
2024-03-16T07:59:46.157Z,93.60
2024-03-16T08:04:48.076Z,92.53
2024-03-16T08:09:49.650Z,92.77
2024-03-16T08:14:50.898Z,91.96
2024-03-16T08:19:52.166Z,91.21
2024-03-16T08:24:53.538Z,90.30
2024-03-16T08:29:56.258Z,91.23
2024-03-16T08:34:58.008Z,91.34
2024-03-16T08:39:59.338Z,90.91
2024-03-16T08:45:00.708Z,88.67
2024-03-16T08:50:01.986Z,87.95
2024-03-16T08:55:04.321Z,86.79
2024-03-16T09:00:05.874Z,87.26
2024-03-16T09:05:09.565Z,82.70
2024-03-16T09:10:12.571Z,84.89
2024-03-16T09:15:14.100Z,82.85
2024-03-16T09:20:15.344Z,81.10
2024-03-16T09:25:16.726Z,83.49
2024-03-16T09:30:19.843Z,82.92
2024-03-16T09:35:21.091Z,81.60
2024-03-16T09:40:24.921Z,83.45
